Time;durP1;ratioP1;P1;durP2;ratioP2;P2;SDS_P1;SDS_P2;PMS_P1;PMS_P2;Temp;Humidity;BMP_temperature;BMP_pressure;BME280_temperature;BME280_humidity;BME280_pressure;Samples;Min_cycle;Max_cycle;Signal;HPM_P1;HPM_P2
2023/01/13 00:01:23;;;;;;;2.08;1.10;;;19.70;59.40;;;;;;4991343;28;20300;-66
2023/01/13 00:03:49;;;;;;;2.20;1.35;;;19.70;59.50;;;;;;4975021;28;20185;-66
2023/01/13 00:06:20;;;;;;;1.80;1.13;;;19.70;59.50;;;;;;4991355;28;20177;-66
2023/01/13 00:08:50;;;;;;;2.13;1.23;;;19.70;59.50;;;;;;4990811;28;20208;-66
2023/01/13 00:11:17;;;;;;;2.35;1.08;;;19.70;59.40;;;;;;4979343;28;20213;-66
2023/01/13 00:13:43;;;;;;;2.85;1.30;;;19.70;59.50;;;;;;4993185;28;20195;-66
2023/01/13 00:16:14;;;;;;;2.20;1.30;;;19.70;59.50;;;;;;4995255;28;20193;-65
2023/01/13 00:18:40;;;;;;;1.25;1.00;;;19.70;59.40;;;;;;4994857;28;20185;-65
2023/01/13 00:21:12;;;;;;;2.53;1.40;;;19.70;59.50;;;;;;4994706;28;20201;-65
2023/01/13 00:23:38;;;;;;;2.70;1.27;;;19.70;59.50;;;;;;4995002;28;20177;-65
2023/01/13 00:26:12;;;;;;;2.67;1.20;;;19.70;59.50;;;;;;4994951;28;20247;-65
2023/01/13 00:28:38;;;;;;;1.38;1.13;;;19.70;59.40;;;;;;4978317;28;20654;-65
2023/01/13 00:31:06;;;;;;;1.77;1.05;;;19.70;59.50;;;;;;4975110;28;20260;-66
2023/01/13 00:33:32;;;;;;;1.85;1.13;;;19.70;59.50;;;;;;4959231;28;20189;-66
2023/01/13 00:36:00;;;;;;;1.67;1.00;;;19.70;59.40;;;;;;4959458;28;20224;-65
2023/01/13 00:38:26;;;;;;;1.92;1.20;;;19.70;59.50;;;;;;4975145;28;20174;-65
2023/01/13 00:41:03;;;;;;;1.27;1.13;;;19.70;59.50;;;;;;4975085;28;20225;-65
2023/01/13 00:43:31;;;;;;;2.33;1.20;;;19.70;59.50;;;;;;5007807;28;20232;-66
2023/01/13 00:45:58;;;;;;;1.13;0.82;;;19.70;59.50;;;;;;4983021;28;20201;-66
2023/01/13 00:48:26;;;;;;;1.80;1.00;;;19.70;59.50;;;;;;4994284;28;20177;-66
2023/01/13 00:51:17;;;;;;;1.65;1.10;;;19.70;59.50;;;;;;4991485;28;20252;-66
2023/01/13 00:53:49;;;;;;;3.65;1.35;;;19.70;59.50;;;;;;4990179;28;20215;-66
2023/01/13 00:56:23;;;;;;;2.10;1.42;;;19.70;59.50;;;;;;4978083;28;20177;-65
2023/01/13 00:58:50;;;;;;;2.78;1.13;;;19.70;59.50;;;;;;4978087;28;20184;-66
2023/01/13 01:01:24;;;;;;;1.00;0.90;;;19.70;59.50;;;;;;4994140;28;20280;-66
2023/01/13 01:03:52;;;;;;;1.98;1.02;;;19.70;59.50;;;;;;4994147;28;20202;-66
2023/01/13 01:06:23;;;;;;;2.00;1.00;;;19.70;59.40;;;;;;4977850;28;20212;-65
2023/01/13 01:08:50;;;;;;;1.25;0.90;;;19.70;59.40;;;;;;4994175;28;20193;-66
2023/01/13 01:11:29;;;;;;;1.92;1.10;;;19.70;59.40;;;;;;4977664;28;20303;-66
2023/01/13 01:13:59;;;;;;;2.53;0.95;;;19.70;59.40;;;;;;4977843;28;20540;-66
2023/01/13 01:16:29;;;;;;;1.42;1.00;;;19.70;59.40;;;;;;4994351;28;20169;-65
2023/01/13 01:18:55;;;;;;;1.73;1.08;;;19.70;59.50;;;;;;4994845;28;20211;-66
2023/01/13 01:21:24;;;;;;;1.38;1.02;;;19.70;59.40;;;;;;4993968;28;20209;-66
2023/01/13 01:23:50;;;;;;;1.73;0.90;;;19.70;59.40;;;;;;5026398;28;20193;-66
2023/01/13 01:26:20;;;;;;;2.08;0.80;;;19.70;59.40;;;;;;5026238;28;20195;-66
2023/01/13 01:28:46;;;;;;;1.88;1.20;;;19.70;59.50;;;;;;4994644;28;20185;-65
2023/01/13 01:31:16;;;;;;;1.75;1.15;;;19.70;59.50;;;;;;4977265;28;20211;-66
2023/01/13 01:33:42;;;;;;;1.77;1.10;;;19.70;59.50;;;;;;4993495;28;20197;-66
2023/01/13 01:36:13;;;;;;;1.88;0.82;;;19.70;59.50;;;;;;4993443;28;20232;-65
2023/01/13 01:38:39;;;;;;;2.35;1.17;;;19.70;59.50;;;;;;4994458;28;20280;-65
2023/01/13 01:41:06;;;;;;;1.60;0.90;;;19.70;59.40;;;;;;5025929;28;20674;-66
2023/01/13 01:44:42;;;;;;;1.10;1.00;;;19.70;59.50;;;;;;4973880;28;20190;-65
2023/01/13 01:47:16;;;;;;;1.88;1.10;;;19.70;59.50;;;;;;4976251;28;20213;-66
2023/01/13 01:49:44;;;;;;;1.17;0.88;;;19.70;59.50;;;;;;5025779;28;20282;-64
2023/01/13 01:52:33;;;;;;;1.70;0.93;;;19.70;59.50;;;;;;5025945;28;20189;-65
2023/01/13 01:55:14;;;;;;;1.30;1.08;;;19.70;59.50;;;;;;4994456;28;20181;-66
2023/01/13 01:57:46;;;;;;;1.27;0.73;;;19.70;59.40;;;;;;5009511;28;20173;-65
2023/01/13 02:00:12;;;;;;;1.42;0.88;;;19.70;59.40;;;;;;4991704;28;20213;-65
2023/01/13 02:02:43;;;;;;;2.35;1.00;;;19.70;59.40;;;;;;4986637;28;20189;-65
2023/01/13 02:05:09;;;;;;;2.15;1.15;;;19.70;59.40;;;;;;4994065;28;20205;-65
2023/01/13 02:07:38;;;;;;;1.40;0.80;;;19.70;59.50;;;;;;4992892;28;20181;-66
2023/01/13 02:10:10;;;;;;;1.23;1.02;;;19.70;59.50;;;;;;4992743;28;20201;-65
2023/01/13 02:12:37;;;;;;;2.08;1.10;;;19.70;59.50;;;;;;4992902;28;20244;-65
2023/01/13 02:15:15;;;;;;;1.77;0.98;;;19.70;59.50;;;;;;4976767;28;20191;-65
2023/01/13 02:18:04;;;;;;;1.13;1.00;;;19.70;59.50;;;;;;4976539;28;20196;-64
2023/01/13 02:20:58;;;;;;;1.70;1.00;;;19.70;59.50;;;;;;5005173;28;20317;-66
2023/01/13 02:27:50;;;;;;;1.38;0.80;;;19.70;59.40;;;;;;4991095;28;20296;-65
2023/01/13 02:34:11;;;;;;;1.58;0.90;;;19.70;59.50;;;;;;5025488;28;20199;-64
2023/01/13 02:36:57;;;;;;;3.05;1.08;;;19.70;59.50;;;;;;4993051;28;20211;-65
2023/01/13 02:39:40;;;;;;;0.98;0.80;;;19.70;59.50;;;;;;5024554;28;20177;-66
2023/01/13 02:45:28;;;;;;;1.85;1.00;;;19.70;59.50;;;;;;4992441;28;20208;-66
2023/01/13 02:47:58;;;;;;;2.58;0.93;;;19.70;59.50;;;;;;4972988;28;20186;-65
2023/01/13 02:50:38;;;;;;;1.23;1.00;;;19.70;59.50;;;;;;4972441;28;20272;-66
2023/01/13 02:53:24;;;;;;;1.08;0.90;;;19.70;59.50;;;;;;4981686;28;20189;-66
2023/01/13 02:55:54;;;;;;;2.20;1.08;;;19.70;60.10;;;;;;4992126;28;20193;-66
2023/01/13 02:58:26;;;;;;;1.13;0.85;;;19.70;59.40;;;;;;5024875;28;20177;-65
2023/01/13 03:00:52;;;;;;;1.35;1.00;;;19.70;59.40;;;;;;5024444;28;20219;-66
2023/01/13 03:03:18;;;;;;;1.15;0.95;;;19.70;59.50;;;;;;4993105;28;20177;-66
2023/01/13 03:05:50;;;;;;;2.20;1.23;;;19.70;59.50;;;;;;4991740;28;20247;-66
2023/01/13 03:09:05;;;;;;;0.93;0.80;;;19.70;59.50;;;;;;4976044;28;20196;-66
2023/01/13 03:11:49;;;;;;;1.10;0.90;;;19.70;59.40;;;;;;4994003;28;20258;-65
2023/01/13 03:14:58;;;;;;;1.77;1.10;;;19.70;59.50;;;;;;4977887;28;20189;-65
2023/01/13 03:17:42;;;;;;;1.75;1.08;;;19.70;59.40;;;;;;4985347;28;20200;-65
2023/01/13 03:20:22;;;;;;;2.30;0.93;;;19.70;59.40;;;;;;4975177;28;20313;-65
2023/01/13 03:23:18;;;;;;;1.70;1.10;;;19.70;59.50;;;;;;4975842;28;20668;-66
2023/01/13 03:26:16;;;;;;;1.40;0.80;;;19.70;59.50;;;;;;5007853;28;20216;-66
2023/01/13 03:28:53;;;;;;;1.65;0.90;;;19.70;59.60;;;;;;4988241;28;20194;-64
2023/01/13 03:31:29;;;;;;;2.05;0.90;;;19.70;59.50;;;;;;4973691;28;20217;-66
2023/01/13 03:34:12;;;;;;;1.30;0.95;;;19.70;59.60;;;;;;5013183;28;20195;-64
2023/01/13 03:36:41;;;;;;;0.80;0.77;;;19.70;59.50;;;;;;4991504;28;20203;-66
2023/01/13 03:39:14;;;;;;;1.40;0.90;;;19.70;59.50;;;;;;4991931;28;20192;-66
2023/01/13 03:41:56;;;;;;;1.33;0.90;;;19.70;59.60;;;;;;4991230;28;20221;-65
2023/01/13 03:44:45;;;;;;;1.45;0.90;;;19.70;59.50;;;;;;4975081;28;20240;-65
2023/01/13 03:47:33;;;;;;;1.05;0.70;;;19.70;59.60;;;;;;4991516;28;20188;-65
2023/01/13 03:50:21;;;;;;;1.08;0.75;;;19.70;59.50;;;;;;4977751;28;20244;-65
2023/01/13 03:52:54;;;;;;;1.00;0.80;;;19.70;59.60;;;;;;4995674;28;20177;-65
2023/01/13 03:55:34;;;;;;;1.25;0.90;;;19.70;59.50;;;;;;4979032;28;20594;-65
2023/01/13 03:58:19;;;;;;;1.42;0.80;;;19.70;59.50;;;;;;4979106;28;20192;-64
2023/01/13 04:00:56;;;;;;;1.02;0.80;;;19.70;59.50;;;;;;4978782;28;20240;-65
2023/01/13 04:03:52;;;;;;;1.60;0.90;;;19.70;59.60;;;;;;4995162;28;20188;-65
2023/01/13 04:06:42;;;;;;;0.80;0.80;;;19.60;59.40;;;;;;4996113;28;20303;-66
2023/01/13 04:09:19;;;;;;;0.68;0.60;;;19.70;59.60;;;;;;4994874;28;20192;-66
2023/01/13 04:11:56;;;;;;;0.80;0.80;;;19.70;59.50;;;;;;4988498;28;20589;-65
2023/01/13 04:14:25;;;;;;;1.70;1.00;;;19.70;59.60;;;;;;4994875;28;20188;-65
2023/01/13 04:16:55;;;;;;;0.80;0.80;;;19.70;59.60;;;;;;4996035;28;20181;-66
2023/01/13 04:19:21;;;;;;;0.80;0.77;;;19.70;59.60;;;;;;4994948;28;20267;-65
2023/01/13 04:21:46;;;;;;;0.82;0.60;;;19.70;59.60;;;;;;4995056;28;20205;-66
2023/01/13 04:24:12;;;;;;;0.98;0.70;;;19.70;59.60;;;;;;4994659;28;20192;-65
2023/01/13 04:26:38;;;;;;;1.00;0.80;;;19.70;59.60;;;;;;4995211;28;20181;-65
2023/01/13 04:29:04;;;;;;;1.02;0.82;;;19.70;59.60;;;;;;4978617;28;20216;-65
2023/01/13 04:31:30;;;;;;;1.13;1.00;;;19.70;59.60;;;;;;4994858;28;20200;-65
2023/01/13 04:33:55;;;;;;;0.95;0.70;;;19.70;59.60;;;;;;4994844;28;20173;-65
2023/01/13 04:36:26;;;;;;;2.53;0.95;;;19.70;59.60;;;;;;4994685;28;20189;-66
2023/01/13 04:38:53;;;;;;;0.60;0.55;;;19.70;59.60;;;;;;5027292;28;20642;-65
2023/01/13 04:41:19;;;;;;;1.30;0.90;;;19.70;59.50;;;;;;5021984;23;20289;-67
2023/01/13 04:43:45;;;;;;;1.20;0.80;;;19.70;59.60;;;;;;5009834;28;20271;-68
2023/01/13 04:46:10;;;;;;;0.80;0.68;;;19.70;59.50;;;;;;5003733;28;20208;-68
2023/01/13 04:48:36;;;;;;;0.95;0.85;;;19.70;59.50;;;;;;4997772;28;20286;-67
2023/01/13 04:51:02;;;;;;;0.73;0.73;;;19.70;59.60;;;;;;4981758;28;20207;-69
2023/01/13 04:53:28;;;;;;;0.80;0.80;;;19.70;59.60;;;;;;4997617;28;20251;-70
2023/01/13 04:55:53;;;;;;;1.15;0.90;;;19.70;59.60;;;;;;4979993;28;20215;-69
2023/01/13 04:58:20;;;;;;;0.85;0.63;;;19.70;59.60;;;;;;5005752;28;20179;-69
2023/01/13 05:00:46;;;;;;;1.05;0.80;;;19.70;59.60;;;;;;4993075;28;20291;-69
2023/01/13 05:03:11;;;;;;;0.85;0.73;;;19.70;59.60;;;;;;4994115;28;20196;-69
2023/01/13 05:05:37;;;;;;;2.63;1.00;;;19.70;59.60;;;;;;4981506;28;20212;-69
2023/01/13 05:08:04;;;;;;;1.95;1.02;;;19.70;59.60;;;;;;4997352;28;20188;-69
2023/01/13 05:10:30;;;;;;;0.85;0.77;;;19.70;59.60;;;;;;4997362;28;20591;-70
2023/01/13 05:18:28;;;;;;;1.15;0.80;;;19.70;59.60;;;;;;4997064;28;20668;-69
2023/01/13 05:20:54;;;;;;;0.63;0.63;;;19.70;59.60;;;;;;4997222;28;20234;-69
2023/01/13 05:26:04;;;;;;;0.85;0.77;;;19.70;59.50;;;;;;4996940;28;20727;-70
2023/01/13 05:28:32;;;;;;;0.57;0.57;;;19.70;59.60;;;;;;4996421;28;20230;-69
2023/01/13 05:30:58;;;;;;;1.10;0.90;;;19.70;59.60;;;;;;5013061;28;20258;-70
2023/01/13 05:33:24;;;;;;;0.93;0.70;;;19.70;59.60;;;;;;4996589;28;20192;-70
2023/01/13 05:35:50;;;;;;;1.15;0.93;;;19.70;59.60;;;;;;4999872;28;20200;-70
2023/01/13 05:38:17;;;;;;;1.13;0.70;;;19.70;59.60;;;;;;4994348;28;20204;-70
2023/01/13 05:43:29;;;;;;;0.52;0.52;;;19.70;59.60;;;;;;5014067;28;20183;-70
2023/01/13 05:46:16;;;;;;;1.23;0.65;;;19.70;59.60;;;;;;4996366;28;20223;-70
2023/01/13 05:48:42;;;;;;;0.60;0.55;;;19.70;59.60;;;;;;5013806;28;20195;-70
2023/01/13 05:51:11;;;;;;;0.80;0.60;;;19.70;59.60;;;;;;5013921;28;20290;-70
2023/01/13 05:53:39;;;;;;;0.90;0.60;;;19.70;59.60;;;;;;4980451;28;20188;-70
2023/01/13 05:56:07;;;;;;;0.50;0.50;;;19.70;59.60;;;;;;5013888;28;20192;-69
2023/01/13 05:58:34;;;;;;;0.88;0.60;;;19.70;59.60;;;;;;5013536;28;20645;-69
2023/01/13 06:01:06;;;;;;;0.70;0.70;;;19.70;59.60;;;;;;4996124;28;20358;-70
2023/01/13 06:03:32;;;;;;;0.65;0.60;;;19.60;59.50;;;;;;4979740;28;20200;-70
2023/01/13 06:06:00;;;;;;;1.02;0.80;;;19.70;59.60;;;;;;4996352;28;20211;-70
2023/01/13 06:08:26;;;;;;;0.50;0.50;;;19.70;59.60;;;;;;4976734;28;20203;-71
2023/01/13 06:10:52;;;;;;;0.95;0.70;;;19.70;59.70;;;;;;4960535;28;20204;-70
2023/01/13 06:13:18;;;;;;;0.80;0.68;;;19.60;59.60;;;;;;4965036;28;20196;-70
2023/01/13 06:15:43;;;;;;;1.33;0.55;;;19.70;59.60;;;;;;4987353;28;20190;-70
2023/01/13 06:18:09;;;;;;;1.45;0.70;;;19.70;59.60;;;;;;4995107;28;20322;-70
2023/01/13 06:20:35;;;;;;;0.60;0.60;;;19.70;59.60;;;;;;4976596;28;20212;-70
2023/01/13 06:23:02;;;;;;;1.27;0.70;;;19.70;59.70;;;;;;4978526;28;20207;-70
2023/01/13 06:26:02;;;;;;;0.90;0.60;;;19.70;59.60;;;;;;4968879;28;20221;-70
2023/01/13 06:28:27;;;;;;;0.80;0.77;;;19.70;59.60;;;;;;4975447;28;20196;-70
2023/01/13 06:31:00;;;;;;;1.73;0.70;;;19.70;59.60;;;;;;4975729;28;20331;-70
2023/01/13 06:33:36;;;;;;;0.80;0.63;;;19.60;59.50;;;;;;4976959;28;20275;-70
2023/01/13 06:36:13;;;;;;;0.75;0.60;;;19.70;59.60;;;;;;4989048;28;20611;-70
2023/01/13 06:38:45;;;;;;;0.93;0.70;;;19.70;59.70;;;;;;5010664;28;20184;-70
2023/01/13 06:41:11;;;;;;;0.75;0.68;;;19.60;59.50;;;;;;4978442;28;20290;-70
2023/01/13 06:43:39;;;;;;;0.80;0.70;;;19.60;59.60;;;;;;5012579;28;20591;-70
2023/01/13 06:46:05;;;;;;;0.88;0.70;;;19.60;59.60;;;;;;5012284;28;20246;-70
2023/01/13 06:48:34;;;;;;;1.10;0.70;;;19.60;59.60;;;;;;5003459;28;20185;-70
2023/01/13 06:51:01;;;;;;;1.38;0.50;;;19.60;59.50;;;;;;4994959;28;20218;-70
2023/01/13 06:53:27;;;;;;;0.88;0.60;;;19.70;59.70;;;;;;4978404;28;20184;-70
2023/01/13 06:55:53;;;;;;;0.95;0.55;;;19.60;59.60;;;;;;4986774;28;20199;-70
2023/01/13 06:58:18;;;;;;;0.90;0.50;;;19.60;59.60;;;;;;4994506;28;20686;-70
2023/01/13 07:00:48;;;;;;;0.80;0.60;;;19.60;59.60;;;;;;5012100;28;20265;-70
2023/01/13 07:03:16;;;;;;;1.15;0.90;;;19.70;59.70;;;;;;4994562;28;20191;-70
2023/01/13 07:05:50;;;;;;;0.70;0.70;;;19.60;59.60;;;;;;4994410;28;20303;-70
2023/01/13 07:08:16;;;;;;;0.85;0.60;;;19.60;59.50;;;;;;4994273;28;20234;-70
2023/01/13 07:10:42;;;;;;;0.63;0.60;;;19.70;59.70;;;;;;4978229;28;20200;-70
2023/01/13 07:15:58;;;;;;;0.60;0.60;;;19.60;59.50;;;;;;5012080;28;20191;-70
2023/01/13 07:18:27;;;;;;;0.70;0.60;;;19.60;59.60;;;;;;4977819;28;20188;-70
2023/01/13 07:20:59;;;;;;;0.60;0.60;;;19.60;59.60;;;;;;4994314;28;20215;-70
2023/01/13 07:23:31;;;;;;;0.75;0.70;;;19.70;59.70;;;;;;4977594;28;20198;-70
2023/01/13 07:25:58;;;;;;;0.50;0.50;;;19.60;59.60;;;;;;4994350;28;20219;-70
2023/01/13 07:28:26;;;;;;;1.63;0.70;;;19.60;59.60;;;;;;4977397;28;20272;-70
2023/01/13 07:30:52;;;;;;;0.52;0.50;;;19.60;59.50;;;;;;4991170;28;20227;-70
2023/01/13 07:33:19;;;;;;;1.20;0.77;;;19.60;59.60;;;;;;4974741;28;20662;-70
2023/01/13 07:35:48;;;;;;;0.50;0.50;;;19.70;59.70;;;;;;4958636;28;20288;-70
2023/01/13 07:38:14;;;;;;;0.63;0.60;;;19.60;59.60;;;;;;4958421;28;20199;-70
2023/01/13 07:40:40;;;;;;;1.20;0.70;;;19.60;59.60;;;;;;4991958;28;20230;-70
2023/01/13 07:46:17;;;;;;;1.20;0.77;;;19.70;59.60;;;;;;5004065;28;20593;-70
2023/01/13 07:48:45;;;;;;;0.60;0.60;;;19.60;59.50;;;;;;4998348;28;20250;-70
2023/01/13 07:51:11;;;;;;;1.45;0.68;;;19.60;59.60;;;;;;4994135;28;20204;-71
2023/01/13 07:53:38;;;;;;;1.05;0.50;;;19.60;59.60;;;;;;4983177;28;20180;-70
2023/01/13 07:56:06;;;;;;;1.58;0.63;;;19.60;59.60;;;;;;5009072;28;20274;-70
2023/01/13 07:58:36;;;;;;;0.47;0.47;;;19.60;59.60;;;;;;5000414;28;20270;-70
2023/01/13 08:01:13;;;;;;;0.75;0.60;;;19.60;59.60;;;;;;4996088;28;20631;-70
2023/01/13 08:03:39;;;;;;;0.77;0.60;;;19.60;59.60;;;;;;5000728;28;20261;-70
2023/01/13 08:06:06;;;;;;;0.57;0.57;;;19.60;59.50;;;;;;4993329;28;20618;-70
2023/01/13 08:08:32;;;;;;;0.50;0.50;;;19.60;59.60;;;;;;4984993;28;20184;-70
2023/01/13 08:10:59;;;;;;;0.77;0.52;;;19.60;59.60;;;;;;4973138;28;20292;-70
2023/01/13 08:13:25;;;;;;;1.38;0.50;;;19.60;59.50;;;;;;5004559;28;20188;-70
2023/01/13 08:15:58;;;;;;;0.50;0.50;;;19.60;59.50;;;;;;4976662;28;20255;-70
2023/01/13 08:18:24;;;;;;;0.50;0.50;;;19.60;59.50;;;;;;4989712;28;20192;-70
2023/01/13 08:20:51;;;;;;;0.77;0.50;;;19.60;59.50;;;;;;4983716;28;20215;-70
2023/01/13 08:23:19;;;;;;;0.40;0.40;;;19.60;59.60;;;;;;4999720;28;20196;-70
2023/01/13 08:25:45;;;;;;;1.60;0.60;;;19.60;59.50;;;;;;5009451;28;20216;-70
2023/01/13 08:28:13;;;;;;;0.50;0.43;;;19.60;59.50;;;;;;4977388;28;20176;-70
2023/01/13 08:30:38;;;;;;;0.40;0.40;;;19.60;59.60;;;;;;5001141;28;20203;-70
2023/01/13 08:33:10;;;;;;;0.60;0.57;;;19.60;59.60;;;;;;4987662;28;20223;-70
2023/01/13 08:35:38;;;;;;;0.63;0.50;;;19.60;59.50;;;;;;4992055;28;20197;-70
2023/01/13 08:38:05;;;;;;;0.70;0.63;;;19.60;59.60;;;;;;5005789;28;20190;-70
2023/01/13 08:40:32;;;;;;;1.13;0.70;;;19.60;59.50;;;;;;4999216;28;20212;-70
2023/01/13 08:42:58;;;;;;;0.80;0.60;;;19.60;59.60;;;;;;5005276;28;20207;-70
2023/01/13 08:45:24;;;;;;;0.77;0.55;;;19.60;60.20;;;;;;4997178;28;20356;-70
2023/01/13 08:47:50;;;;;;;1.15;0.60;;;19.70;59.60;;;;;;5006359;28;20194;-70
2023/01/13 08:50:17;;;;;;;0.77;0.68;;;19.70;59.60;;;;;;4993583;28;20191;-70
2023/01/13 08:52:43;;;;;;;0.47;0.47;;;19.70;59.60;;;;;;4987649;28;20224;-70
2023/01/13 08:55:10;;;;;;;0.60;0.60;;;19.70;59.60;;;;;;4992462;28;20239;-70
2023/01/13 08:57:36;;;;;;;0.50;0.50;;;19.70;59.60;;;;;;5012179;28;20188;-69
2023/01/13 09:00:06;;;;;;;0.55;0.55;;;19.70;59.60;;;;;;5006792;28;20195;-69
2023/01/13 09:02:31;;;;;;;0.73;0.60;;;19.70;59.60;;;;;;4995436;28;20192;-70
2023/01/13 09:04:59;;;;;;;0.47;0.40;;;19.70;59.60;;;;;;4984983;28;20223;-69
2023/01/13 09:07:25;;;;;;;0.63;0.52;;;19.70;59.60;;;;;;4990043;28;20188;-70
2023/01/13 09:09:50;;;;;;;0.65;0.50;;;19.70;59.60;;;;;;4981688;28;20235;-69
2023/01/13 09:15:02;;;;;;;0.40;0.40;;;19.70;59.60;;;;;;4995979;28;20215;-70
2023/01/13 09:17:28;;;;;;;0.85;0.50;;;19.70;59.60;;;;;;4997630;28;20203;-70
2023/01/13 09:19:54;;;;;;;0.63;0.60;;;19.70;59.60;;;;;;4978965;28;20184;-70
2023/01/13 09:22:20;;;;;;;1.10;0.57;;;19.70;59.70;;;;;;4995603;28;20204;-70
2023/01/13 09:24:46;;;;;;;0.60;0.60;;;19.70;59.60;;;;;;4986668;28;20209;-70
2023/01/13 09:27:14;;;;;;;0.50;0.50;;;19.70;59.70;;;;;;5001987;28;20215;-70
2023/01/13 09:29:40;;;;;;;0.55;0.55;;;19.70;59.70;;;;;;5010320;28;20188;-70
2023/01/13 09:32:06;;;;;;;0.43;0.43;;;19.70;59.70;;;;;;4993639;28;20222;-70
2023/01/13 09:37:16;;;;;;;0.82;0.60;;;19.70;59.70;;;;;;4998863;28;20247;-70
2023/01/13 09:39:42;;;;;;;2.15;0.50;;;19.70;59.70;;;;;;4994416;28;20184;-70
2023/01/13 09:45:52;;;;;;;0.77;0.75;;;19.70;59.70;;;;;;5012178;28;20294;-70
2023/01/13 09:48:27;;;;;;;0.85;0.60;;;19.70;59.70;;;;;;4990644;28;20184;-70
2023/01/13 09:51:15;;;;;;;0.85;0.73;;;19.70;59.80;;;;;;4979501;28;20215;-70
2023/01/13 09:53:54;;;;;;;0.50;0.50;;;19.70;59.70;;;;;;4995810;28;20192;-70
2023/01/13 09:56:23;;;;;;;0.60;0.60;;;19.70;59.70;;;;;;4997334;28;20188;-70
2023/01/13 09:58:49;;;;;;;1.20;0.60;;;19.70;59.70;;;;;;4984675;28;20196;-70
2023/01/13 10:01:44;;;;;;;0.60;0.60;;;19.70;59.80;;;;;;4989887;28;20225;-71
2023/01/13 10:04:13;;;;;;;1.15;0.60;;;19.70;59.90;;;;;;4982365;28;20194;-70
2023/01/13 10:06:45;;;;;;;0.75;0.50;;;19.70;59.80;;;;;;4997523;28;20191;-70
2023/01/13 10:09:25;;;;;;;0.45;0.45;;;19.70;59.80;;;;;;4995309;28;20238;-70
2023/01/13 10:14:51;;;;;;;0.50;0.50;;;19.70;59.80;;;;;;5001615;28;20192;-70
2023/01/13 10:17:43;;;;;;;0.73;0.60;;;19.70;59.80;;;;;;4995163;28;20287;-70
2023/01/13 10:20:27;;;;;;;0.68;0.68;;;19.70;59.80;;;;;;4979944;28;20228;-70
2023/01/13 10:23:39;;;;;;;0.70;0.70;;;19.70;59.80;;;;;;4969966;28;20189;-70
2023/01/13 10:26:51;;;;;;;0.90;0.80;;;19.70;59.80;;;;;;5007000;28;20700;-70
2023/01/13 10:29:26;;;;;;;0.55;0.55;;;19.70;59.80;;;;;;5009745;28;20188;-70
2023/01/13 10:31:55;;;;;;;0.60;0.60;;;19.70;59.80;;;;;;4990382;28;20299;-70
2023/01/13 10:34:22;;;;;;;1.85;0.80;;;19.70;59.80;;;;;;4958369;28;20222;-70
2023/01/13 10:37:05;;;;;;;0.68;0.57;;;19.70;59.80;;;;;;4991744;28;20196;-70
2023/01/13 10:39:42;;;;;;;1.00;0.65;;;19.70;59.80;;;;;;4982987;28;20188;-70
2023/01/13 10:42:17;;;;;;;0.50;0.50;;;19.60;59.80;;;;;;5030122;23;20230;-66
2023/01/13 10:44:56;;;;;;;0.55;0.50;;;19.70;59.90;;;;;;4981549;28;20330;-66
2023/01/13 10:47:33;;;;;;;0.60;0.60;;;19.70;59.80;;;;;;4986247;28;20205;-66
2023/01/13 10:50:07;;;;;;;0.50;0.50;;;19.70;59.80;;;;;;4980540;28;20188;-66
2023/01/13 10:52:40;;;;;;;0.60;0.60;;;19.70;59.80;;;;;;4942874;28;20288;-65
2023/01/13 10:55:36;;;;;;;0.80;0.70;;;19.70;59.80;;;;;;4972062;28;20182;-66
2023/01/13 10:58:19;;;;;;;0.52;0.50;;;19.70;59.80;;;;;;4967579;28;20201;-66
2023/01/13 11:00:47;;;;;;;0.60;0.60;;;19.70;59.80;;;;;;4946192;28;20229;-66
2023/01/13 11:03:23;;;;;;;0.45;0.45;;;19.70;59.80;;;;;;4942538;28;20687;-66
2023/01/13 11:05:56;;;;;;;1.02;0.60;;;19.70;59.80;;;;;;4969678;28;20218;-66
2023/01/13 11:08:40;;;;;;;1.33;0.80;;;19.70;59.80;;;;;;4971238;28;20186;-66
2023/01/13 11:11:43;;;;;;;0.68;0.60;;;19.70;59.80;;;;;;4969205;28;20237;-66
2023/01/13 11:14:31;;;;;;;0.88;0.50;;;19.70;59.80;;;;;;4883924;29;20356;-66
2023/01/13 11:17:08;;;;;;;0.60;0.55;;;19.70;59.70;;;;;;4962355;28;20201;-66
2023/01/13 11:19:42;;;;;;;0.88;0.60;;;19.70;59.80;;;;;;4955906;28;20185;-64
2023/01/13 11:22:26;;;;;;;0.98;0.40;;;19.70;59.80;;;;;;4966649;28;20202;-65
2023/01/13 11:25:01;;;;;;;0.75;0.63;;;19.70;59.80;;;;;;4972392;28;20663;-65
2023/01/13 11:27:51;;;;;;;0.50;0.50;;;19.70;59.80;;;;;;4957200;28;20186;-65
2023/01/13 11:30:57;;;;;;;0.50;0.50;;;19.70;59.70;;;;;;4972098;28;20181;-65
2023/01/13 11:34:02;;;;;;;0.65;0.52;;;19.70;59.70;;;;;;4966395;28;20205;-65
2023/01/13 11:36:41;;;;;;;0.52;0.47;;;19.70;59.70;;;;;;4894589;29;20189;-64
2023/01/13 11:39:46;;;;;;;0.68;0.60;;;19.70;59.70;;;;;;4942559;28;20256;-65
2023/01/13 11:42:49;;;;;;;0.57;0.52;;;19.70;59.70;;;;;;4969911;28;20213;-64
2023/01/13 11:45:30;;;;;;;0.63;0.63;;;19.70;59.80;;;;;;4971106;28;20617;-64
2023/01/13 11:48:00;;;;;;;0.40;0.40;;;19.70;59.70;;;;;;4985347;28;20198;-63
2023/01/13 11:50:46;;;;;;;1.00;0.90;;;19.70;59.80;;;;;;4970446;28;20189;-65
2023/01/13 11:54:01;;;;;;;0.80;0.68;;;19.70;60.50;;;;;;4955723;28;20221;-64
2023/01/13 11:57:06;;;;;;;0.65;0.65;;;19.70;60.00;;;;;;4967801;28;20182;-66
2023/01/13 11:59:55;;;;;;;1.45;0.70;;;19.70;60.50;;;;;;4960580;28;20182;-65
2023/01/13 12:02:56;;;;;;;1.02;0.70;;;19.70;60.50;;;;;;4971890;28;20265;-65
2023/01/13 12:05:34;;;;;;;1.15;0.75;;;19.70;60.50;;;;;;4968184;28;20221;-66
2023/01/13 12:08:19;;;;;;;1.40;0.75;;;19.70;60.30;;;;;;4971948;28;20249;-66
2023/01/13 12:11:05;;;;;;;1.20;1.00;;;19.70;60.50;;;;;;4967439;28;20230;-66
2023/01/13 12:13:46;;;;;;;1.95;1.00;;;19.70;60.40;;;;;;4957495;28;20189;-65
2023/01/13 12:16:30;;;;;;;0.98;0.88;;;19.70;61.00;;;;;;4973222;28;20274;-66
2023/01/13 12:19:23;;;;;;;1.17;0.80;;;19.70;60.30;;;;;;4975139;28;20190;-65
2023/01/13 12:22:26;;;;;;;2.58;1.00;;;19.70;60.20;;;;;;4973770;28;20213;-65
2023/01/13 12:25:25;;;;;;;1.10;1.00;;;19.70;60.20;;;;;;4991510;28;20299;-65
2023/01/13 12:28:09;;;;;;;2.40;0.98;;;19.70;60.20;;;;;;4975283;28;20170;-64
2023/01/13 12:30:49;;;;;;;1.50;1.00;;;19.70;60.20;;;;;;4975254;28;20182;-65
2023/01/13 12:33:42;;;;;;;0.75;0.70;;;19.70;60.10;;;;;;4975602;28;20182;-65
2023/01/13 12:36:23;;;;;;;1.75;1.00;;;19.70;60.10;;;;;;4986097;28;20693;-65
2023/01/13 12:39:09;;;;;;;0.77;0.73;;;19.70;60.00;;;;;;4958960;28;20199;-65
2023/01/13 12:45:10;;;;;;;1.52;0.93;;;19.70;60.00;;;;;;4991152;28;20192;-65
2023/01/13 12:47:42;;;;;;;2.63;1.40;;;19.70;59.90;;;;;;4983763;28;20182;-65
2023/01/13 12:50:26;;;;;;;2.50;1.15;;;19.70;59.90;;;;;;4971518;28;20182;-69
2023/01/13 12:52:57;;;;;;;2.20;1.15;;;19.70;60.30;;;;;;4971488;28;20244;-67
2023/01/13 12:55:34;;;;;;;5.35;1.23;;;19.80;60.60;;;;;;4963680;28;20187;-65
2023/01/13 12:58:05;;;;;;;4.38;1.38;;;19.80;60.60;;;;;;4981755;28;20248;-70
2023/01/13 13:00:40;;;;;;;3.88;1.73;;;19.90;60.70;;;;;;4958374;28;20595;-68
2023/01/13 13:03:12;;;;;;;5.20;1.40;;;20.00;60.90;;;;;;4975962;28;20191;-68
2023/01/13 13:05:53;;;;;;;2.47;1.38;;;19.90;60.70;;;;;;4958863;28;20205;-68
2023/01/13 13:08:40;;;;;;;2.92;1.20;;;19.90;60.70;;;;;;4939274;29;20186;-69
2023/01/13 13:13:57;;;;;;;4.85;1.80;;;19.90;61.10;;;;;;4958424;28;20257;-66
2023/01/13 13:16:25;;;;;;;4.85;1.98;;;20.00;61.10;;;;;;4974409;28;20178;-66
2023/01/13 13:19:18;;;;;;;4.07;1.50;;;19.90;61.20;;;;;;4978508;28;20193;-66
2023/01/13 13:22:12;;;;;;;5.15;1.90;;;19.90;61.10;;;;;;4951817;28;20229;-66
2023/01/13 13:24:47;;;;;;;2.03;1.25;;;19.80;60.90;;;;;;4974248;28;20185;-66
2023/01/13 13:27:43;;;;;;;3.17;1.70;;;19.80;60.90;;;;;;4974415;28;20196;-66
2023/01/13 13:30:33;;;;;;;1.30;1.20;;;19.80;60.80;;;;;;4966437;28;20182;-66
2023/01/13 13:33:42;;;;;;;2.97;1.52;;;19.80;60.90;;;;;;4971834;28;20233;-66
2023/01/13 13:36:49;;;;;;;4.32;2.05;;;19.80;60.80;;;;;;4970317;28;20257;-66
2023/01/13 13:48:25;;;;;;;3.28;1.60;;;19.80;60.60;;;;;;4987261;28;20694;-66
2023/01/13 13:51:00;;;;;;;4.00;2.08;;;19.80;60.60;;;;;;4962745;28;20220;-65
2023/01/13 13:53:32;;;;;;;2.65;1.52;;;19.80;60.60;;;;;;4984796;28;20201;-66
2023/01/13 13:56:02;;;;;;;2.45;1.40;;;19.80;60.60;;;;;;4964103;28;20276;-66
2023/01/13 13:58:34;;;;;;;4.22;1.67;;;19.80;60.60;;;;;;4962337;28;20197;-67
2023/01/13 14:01:00;;;;;;;2.92;1.92;;;19.70;60.50;;;;;;4964985;28;20218;-66
2023/01/13 14:03:31;;;;;;;3.25;2.00;;;19.70;60.50;;;;;;4963398;28;20710;-66
2023/01/13 14:06:04;;;;;;;4.30;2.15;;;19.70;60.50;;;;;;4953990;28;20256;-66
2023/01/13 14:08:38;;;;;;;3.53;2.08;;;19.80;60.60;;;;;;4954385;29;20186;-66
2023/01/13 14:11:28;;;;;;;2.72;1.63;;;19.70;60.50;;;;;;4961982;28;20256;-66
2023/01/13 14:14:15;;;;;;;3.50;1.80;;;19.80;60.60;;;;;;4953770;28;20240;-66
2023/01/13 14:16:41;;;;;;;2.65;1.80;;;19.70;60.50;;;;;;4968959;28;20186;-68
2023/01/13 14:19:34;;;;;;;3.92;2.08;;;19.70;60.50;;;;;;4960289;28;20190;-66
2023/01/13 14:22:02;;;;;;;3.35;2.17;;;19.70;60.50;;;;;;4954598;28;20226;-66